createdAt,value
2019-02-10T00:00:31.021Z,3.90
2019-02-10T00:02:58.557Z,3.37
2019-02-10T00:05:26.053Z,3.03
2019-02-10T00:07:53.342Z,3.97
2019-02-10T00:10:20.616Z,3.40
2019-02-10T00:13:05.976Z,3.13
2019-02-10T00:15:33.502Z,3.90
2019-02-10T00:18:00.783Z,3.10
2019-02-10T00:20:28.122Z,3.40
2019-02-10T00:22:55.368Z,3.20
2019-02-10T00:25:22.641Z,3.80
2019-02-10T00:27:50.182Z,4.40
2019-02-10T00:30:17.460Z,2.87
2019-02-10T00:32:44.748Z,3.00
2019-02-10T00:35:12.003Z,3.20
2019-02-10T00:37:39.526Z,3.30
2019-02-10T00:40:07.031Z,3.23
2019-02-10T00:42:34.304Z,3.50
2019-02-10T00:45:01.580Z,3.77
2019-02-10T00:47:28.829Z,2.93
2019-02-10T00:49:56.110Z,3.60
2019-02-10T00:52:23.353Z,3.70
2019-02-10T00:54:50.894Z,3.53
2019-02-10T00:57:18.419Z,4.03
2019-02-10T00:59:45.799Z,3.50
2019-02-10T01:02:13.050Z,2.97
2019-02-10T01:04:40.372Z,3.20
2019-02-10T01:07:07.970Z,3.13
2019-02-10T01:09:35.224Z,3.43
2019-02-10T01:12:02.493Z,3.17
2019-02-10T01:14:29.817Z,3.30
2019-02-10T01:16:57.186Z,3.27
2019-02-10T01:19:24.434Z,3.20
2019-02-10T01:21:51.714Z,3.30
2019-02-10T01:24:19.299Z,3.00
2019-02-10T01:26:46.582Z,3.80
2019-02-10T01:29:13.839Z,3.70
2019-02-10T01:31:41.085Z,3.10
2019-02-10T01:34:08.370Z,3.30
2019-02-10T01:36:35.619Z,3.70
2019-02-10T01:39:03.741Z,4.40
2019-02-10T01:41:31.237Z,4.30
2019-02-10T01:43:58.838Z,3.43
2019-02-10T01:46:26.339Z,3.03
2019-02-10T01:48:53.587Z,2.93
2019-02-10T01:51:20.868Z,3.20
2019-02-10T01:53:48.371Z,3.00
2019-02-10T01:56:15.913Z,2.90
2019-02-10T01:58:43.414Z,3.60
2019-02-10T02:01:10.724Z,2.73
2019-02-10T02:03:37.969Z,2.53
2019-02-10T02:06:05.246Z,3.60
2019-02-10T02:08:32.502Z,3.23
2019-02-10T02:10:59.772Z,2.83
2019-02-10T02:13:27.014Z,2.33
2019-02-10T02:15:54.541Z,2.47
2019-02-10T02:18:22.042Z,2.37
2019-02-10T02:20:49.315Z,3.17
2019-02-10T02:23:16.587Z,3.37
2019-02-10T02:25:44.091Z,2.80
2019-02-10T02:28:11.370Z,3.10
2019-02-10T02:30:39.481Z,3.60
2019-02-10T02:33:06.982Z,2.00
2019-02-10T02:35:34.250Z,2.53
2019-02-10T02:38:01.535Z,3.03
2019-02-10T02:40:28.791Z,3.40
2019-02-10T02:42:56.062Z,2.63
2019-02-10T02:45:23.336Z,3.63
2019-02-10T02:47:50.577Z,4.33
2019-02-10T02:50:18.110Z,2.73
2019-02-10T02:52:45.363Z,3.03
2019-02-10T02:55:12.645Z,3.27
2019-02-10T02:57:40.147Z,3.00
2019-02-10T03:00:10.711Z,3.07
2019-02-10T03:02:38.239Z,2.80
2019-02-10T03:05:07.106Z,2.47
2019-02-10T03:07:34.657Z,2.73
2019-02-10T03:10:02.208Z,2.73
2019-02-10T03:12:29.460Z,3.10
2019-02-10T03:14:56.728Z,3.80
2019-02-10T03:17:23.979Z,2.67
2019-02-10T03:19:51.263Z,3.53
2019-02-10T03:22:18.573Z,2.50
2019-02-10T03:24:45.875Z,2.97
2019-02-10T03:27:13.138Z,2.37
2019-02-10T03:29:40.391Z,2.23
2019-02-10T03:32:07.918Z,2.60
2019-02-10T03:34:35.515Z,2.73
2019-02-10T03:37:02.795Z,2.20
2019-02-10T03:39:30.047Z,2.60
2019-02-10T03:41:57.574Z,3.23
2019-02-10T03:44:24.911Z,2.27
2019-02-10T03:46:52.190Z,2.20
2019-02-10T03:49:19.471Z,2.60
2019-02-10T03:51:46.716Z,3.10
2019-02-10T03:54:13.995Z,2.60
2019-02-10T03:56:41.246Z,2.53
2019-02-10T03:59:08.528Z,3.23
2019-02-10T04:01:35.842Z,2.83
2019-02-10T04:04:03.188Z,3.07
2019-02-10T04:06:30.706Z,3.33
2019-02-10T04:08:57.974Z,3.03
2019-02-10T04:11:25.529Z,3.10
2019-02-10T04:13:52.769Z,4.70
2019-02-10T04:16:20.127Z,2.90
2019-02-10T04:18:47.666Z,2.97
2019-02-10T04:21:14.911Z,2.57
2019-02-10T04:23:42.433Z,2.63
2019-02-10T04:26:09.931Z,2.80
2019-02-10T04:28:37.223Z,2.20
2019-02-10T04:31:04.788Z,2.80
2019-02-10T04:33:32.072Z,3.20
2019-02-10T04:35:59.347Z,3.80
2019-02-10T04:38:26.625Z,3.00
2019-02-10T04:40:53.901Z,3.70
2019-02-10T04:43:21.237Z,3.17
2019-02-10T04:45:48.604Z,4.17
2019-02-10T04:48:15.887Z,3.53
2019-02-10T04:50:43.384Z,3.77
2019-02-10T04:53:10.663Z,4.20
2019-02-10T04:55:37.982Z,5.20
2019-02-10T04:58:05.513Z,4.23
2019-02-10T05:00:32.789Z,3.47
2019-02-10T05:03:00.083Z,3.20
2019-02-10T05:05:27.329Z,3.27
2019-02-10T05:07:54.891Z,4.40
2019-02-10T05:10:22.222Z,3.70
2019-02-10T05:12:49.723Z,4.60
2019-02-10T05:15:17.239Z,4.13
2019-02-10T05:17:44.562Z,4.40
2019-02-10T05:20:11.930Z,4.23
2019-02-10T05:22:39.431Z,3.87
2019-02-10T05:25:06.763Z,4.10
2019-02-10T05:27:34.011Z,5.03
2019-02-10T05:30:01.326Z,4.67
2019-02-10T05:32:28.703Z,4.20
2019-02-10T05:34:56.231Z,4.13
2019-02-10T05:37:23.511Z,4.37
2019-02-10T05:39:50.834Z,4.00
2019-02-10T05:42:18.357Z,4.50
2019-02-10T05:44:45.604Z,5.27
2019-02-10T05:47:12.880Z,3.87
2019-02-10T05:49:40.142Z,4.03
2019-02-10T05:52:07.645Z,4.13
2019-02-10T05:54:34.935Z,5.23
2019-02-10T05:57:02.441Z,4.67
2019-02-10T05:59:29.714Z,4.40
2019-02-10T06:02:01.491Z,4.03
2019-02-10T06:04:28.928Z,4.40
2019-02-10T06:06:57.957Z,5.43
2019-02-10T06:09:25.473Z,4.67
2019-02-10T06:11:52.715Z,4.67
2019-02-10T06:14:19.991Z,4.60
2019-02-10T06:16:47.241Z,4.20
2019-02-10T06:19:14.513Z,4.33
2019-02-10T06:21:41.784Z,4.00
2019-02-10T06:24:09.306Z,4.23
2019-02-10T06:26:36.887Z,5.30
2019-02-10T06:29:04.158Z,4.53
2019-02-10T06:31:31.432Z,4.10
2019-02-10T06:33:58.705Z,4.53
2019-02-10T06:36:25.960Z,4.90
2019-02-10T06:38:53.234Z,4.83
2019-02-10T06:41:20.505Z,5.03
2019-02-10T06:43:47.781Z,4.97
2019-02-10T06:46:15.037Z,3.90
2019-02-10T06:48:42.312Z,5.50
2019-02-10T06:51:09.654Z,4.83
2019-02-10T06:53:36.927Z,5.17
2019-02-10T06:56:04.170Z,4.10
2019-02-10T06:58:31.436Z,4.57
2019-02-10T07:01:12.074Z,4.40
2019-02-10T07:03:45.441Z,4.07
2019-02-10T07:06:13.825Z,3.93
2019-02-10T07:08:41.078Z,4.50
2019-02-10T07:11:08.351Z,5.60
2019-02-10T07:13:37.129Z,4.17
2019-02-10T07:16:22.252Z,4.37
2019-02-10T07:19:07.298Z,3.90
2019-02-10T07:21:34.572Z,4.13
2019-02-10T07:24:03.349Z,4.20
2019-02-10T07:26:32.154Z,4.00
2019-02-10T07:28:59.471Z,4.40
2019-02-10T07:31:26.811Z,4.27
2019-02-10T07:33:58.714Z,3.80
2019-02-10T07:36:30.486Z,3.93
2019-02-10T07:39:02.000Z,4.50
2019-02-10T07:41:48.568Z,4.13
2019-02-10T07:44:23.532Z,4.03
2019-02-10T07:46:52.317Z,3.60
2019-02-10T07:49:21.395Z,4.13
2019-02-10T07:51:59.084Z,3.70
2019-02-10T07:54:30.558Z,4.13
2019-02-10T07:57:08.041Z,3.67
2019-02-10T07:59:36.817Z,3.53
2019-02-10T08:02:05.636Z,3.37
2019-02-10T08:04:34.414Z,3.60
2019-02-10T08:07:03.233Z,3.13
2019-02-10T08:09:48.608Z,3.17
2019-02-10T08:12:17.391Z,3.07
2019-02-10T08:14:46.202Z,3.20
2019-02-10T08:17:14.984Z,3.00
2019-02-10T08:19:44.061Z,5.70
2019-02-10T08:22:12.841Z,3.20
2019-02-10T08:24:41.924Z,3.60
2019-02-10T08:27:19.438Z,2.97
2019-02-10T08:30:06.321Z,2.70
2019-02-10T08:32:38.241Z,2.97
2019-02-10T08:35:12.711Z,3.37
2019-02-10T08:37:47.173Z,3.70
2019-02-10T08:40:18.620Z,3.07
2019-02-10T08:42:50.118Z,2.97
2019-02-10T08:45:33.983Z,3.30
2019-02-10T08:48:02.762Z,2.80
2019-02-10T08:50:34.486Z,2.90
2019-02-10T08:53:03.301Z,3.07
2019-02-10T08:55:30.616Z,2.53
2019-02-10T08:57:57.890Z,2.90
2019-02-10T09:00:25.137Z,2.97
2019-02-10T09:02:52.649Z,3.30
2019-02-10T09:05:20.002Z,2.60
2019-02-10T09:07:47.269Z,3.33
2019-02-10T09:10:14.553Z,3.57
2019-02-10T09:12:41.809Z,2.73
2019-02-10T09:15:10.351Z,2.73
2019-02-10T09:17:37.590Z,2.87
2019-02-10T09:20:06.402Z,2.63
2019-02-10T09:22:33.753Z,2.57
2019-02-10T09:25:02.160Z,2.57
2019-02-10T09:27:29.637Z,2.50
2019-02-10T09:29:56.884Z,2.70
2019-02-10T09:32:24.124Z,2.87
2019-02-10T09:34:51.395Z,2.93
2019-02-10T09:37:20.412Z,2.80
2019-02-10T09:39:47.942Z,3.30
2019-02-10T09:42:15.206Z,3.10
2019-02-10T09:44:42.468Z,3.40
2019-02-10T09:47:09.714Z,3.80
2019-02-10T09:49:36.986Z,3.20
2019-02-10T09:52:04.260Z,3.80
2019-02-10T09:54:31.763Z,3.10
2019-02-10T09:56:59.042Z,3.30
2019-02-10T09:59:26.297Z,3.30
2019-02-10T10:01:53.854Z,3.10
2019-02-10T10:04:21.117Z,3.20
2019-02-10T10:06:48.391Z,3.20
2019-02-10T10:09:19.285Z,3.80
2019-02-10T10:11:44.634Z,3.20
2019-02-10T10:14:12.131Z,3.00
2019-02-10T10:16:39.403Z,3.47
2019-02-10T10:19:06.641Z,3.70
2019-02-10T10:21:33.933Z,3.37
2019-02-10T10:24:01.202Z,3.87
2019-02-10T10:26:28.447Z,3.57
2019-02-10T10:28:55.714Z,4.03
2019-02-10T10:31:22.958Z,3.90
2019-02-10T10:33:50.236Z,4.43
2019-02-10T10:36:17.506Z,3.97
2019-02-10T10:38:44.778Z,3.90
2019-02-10T10:41:12.092Z,4.30
2019-02-10T10:43:39.374Z,5.40
2019-02-10T10:46:06.714Z,4.20
2019-02-10T10:48:34.109Z,3.73
2019-02-10T10:51:01.357Z,3.90
2019-02-10T10:53:28.898Z,4.00
2019-02-10T10:55:56.222Z,3.27
2019-02-10T10:58:23.492Z,3.90
2019-02-10T11:00:50.735Z,3.60
2019-02-10T11:03:18.005Z,3.80
2019-02-10T11:05:45.254Z,3.57
2019-02-10T11:08:12.513Z,3.43
2019-02-10T11:10:39.757Z,3.17
2019-02-10T11:13:07.018Z,3.17
2019-02-10T11:15:34.291Z,3.40
2019-02-10T11:18:01.531Z,3.40
2019-02-10T11:20:28.937Z,3.90
2019-02-10T11:22:56.293Z,3.30
2019-02-10T11:25:23.611Z,3.30
2019-02-10T11:27:50.898Z,3.40
2019-02-10T11:30:18.222Z,3.40
2019-02-10T11:32:45.463Z,3.37
2019-02-10T11:35:12.729Z,3.20
2019-02-10T11:37:40.002Z,3.30
2019-02-10T11:40:08.845Z,2.97
2019-02-10T11:42:36.082Z,3.00
2019-02-10T11:45:03.421Z,2.90
2019-02-10T11:47:30.666Z,3.40
2019-02-10T11:49:57.938Z,3.40
2019-02-10T11:52:25.210Z,2.90
2019-02-10T11:54:52.477Z,3.10
2019-02-10T11:57:19.742Z,2.70
2019-02-10T11:59:47.022Z,3.10
2019-02-10T12:02:14.339Z,3.03
2019-02-10T12:04:41.693Z,2.90
2019-02-10T12:07:08.934Z,3.30
2019-02-10T12:09:36.207Z,3.57
2019-02-10T12:12:03.724Z,2.53
2019-02-10T12:14:30.986Z,2.40
2019-02-10T12:16:58.257Z,2.47
2019-02-10T12:19:25.501Z,2.47
2019-02-10T12:21:52.770Z,2.40
2019-02-10T12:24:20.038Z,2.20
2019-02-10T12:26:47.282Z,2.33
2019-02-10T12:29:14.562Z,2.40
2019-02-10T12:31:41.829Z,2.50
2019-02-10T12:34:09.325Z,1.90
2019-02-10T12:36:36.970Z,2.10
2019-02-10T12:39:04.918Z,1.87
2019-02-10T12:41:32.191Z,2.20
2019-02-10T12:43:59.696Z,1.90
2019-02-10T12:46:26.945Z,2.27
2019-02-10T12:48:54.223Z,2.00
2019-02-10T12:51:21.782Z,2.17
2019-02-10T12:53:49.022Z,2.07
2019-02-10T12:56:16.270Z,2.17
2019-02-10T12:58:44.156Z,1.97
2019-02-10T13:01:11.445Z,1.50
2019-02-10T13:03:38.934Z,1.40
2019-02-10T13:06:06.212Z,1.80
2019-02-10T13:08:33.745Z,1.40
2019-02-10T13:11:01.251Z,1.30
2019-02-10T13:13:28.498Z,1.10
2019-02-10T13:15:55.824Z,0.90
2019-02-10T13:18:23.094Z,1.10
2019-02-10T13:20:50.340Z,1.07
2019-02-10T13:23:17.613Z,1.27
2019-02-10T13:25:44.885Z,1.00
2019-02-10T13:28:12.126Z,0.87
2019-02-10T13:30:39.393Z,0.90
2019-02-10T13:33:06.670Z,0.80
2019-02-10T13:35:33.940Z,0.60
2019-02-10T13:38:01.454Z,0.60
2019-02-10T13:40:28.983Z,0.60
2019-02-10T13:42:56.305Z,0.57
2019-02-10T13:45:23.573Z,0.70
2019-02-10T13:47:51.686Z,0.60
2019-02-10T13:50:19.369Z,0.57
2019-02-10T13:52:46.964Z,0.77
2019-02-10T13:55:15.443Z,0.63
2019-02-10T13:57:43.438Z,0.50
2019-02-10T14:00:12.306Z,0.60
2019-02-10T14:02:39.556Z,0.70
2019-02-10T14:05:07.298Z,0.63
2019-02-10T14:07:34.537Z,0.50
2019-02-10T14:10:01.810Z,0.60
2019-02-10T14:12:29.080Z,0.50
2019-02-10T14:14:56.327Z,0.50
2019-02-10T14:17:23.596Z,0.40
2019-02-10T14:19:50.838Z,0.50
2019-02-10T14:22:18.371Z,0.50
2019-02-10T14:24:45.686Z,0.50
2019-02-10T14:27:13.191Z,0.50
2019-02-10T14:29:40.437Z,0.53
2019-02-10T14:32:07.782Z,0.50
2019-02-10T14:34:35.320Z,0.50
2019-02-10T14:37:02.824Z,0.50
2019-02-10T14:39:30.098Z,0.40
2019-02-10T14:41:58.091Z,0.60
2019-02-10T14:44:25.339Z,0.50
2019-02-10T14:46:52.603Z,0.50
2019-02-10T14:49:20.013Z,0.40
2019-02-10T14:51:47.540Z,0.50
2019-02-10T14:54:14.777Z,0.40
2019-02-10T14:56:42.398Z,0.40
2019-02-10T14:59:10.493Z,0.40
2019-02-10T15:01:37.766Z,0.67
2019-02-10T15:04:05.080Z,0.53
2019-02-10T15:06:32.343Z,0.40
2019-02-10T15:08:59.606Z,0.40
2019-02-10T15:11:27.142Z,0.40
2019-02-10T15:13:54.386Z,0.50
2019-02-10T15:16:21.659Z,0.60
2019-02-10T15:18:48.906Z,0.40
2019-02-10T15:21:16.182Z,0.40
2019-02-10T15:23:43.425Z,0.40
2019-02-10T15:26:10.694Z,0.40
2019-02-10T15:28:37.941Z,0.50
2019-02-10T15:31:05.211Z,0.53
2019-02-10T15:33:32.459Z,0.50
2019-02-10T15:35:59.729Z,0.60
2019-02-10T15:38:26.974Z,0.50
2019-02-10T15:40:54.215Z,0.50
2019-02-10T15:43:21.737Z,0.40
2019-02-10T15:45:49.242Z,0.40
2019-02-10T15:48:16.514Z,0.40
2019-02-10T15:50:43.787Z,0.40
2019-02-10T15:53:11.032Z,0.50
2019-02-10T15:55:38.327Z,0.50
2019-02-10T15:58:05.569Z,0.50
2019-02-10T16:00:32.810Z,0.50
2019-02-10T16:03:00.150Z,0.47
2019-02-10T16:05:27.394Z,0.43
2019-02-10T16:07:54.674Z,0.50
2019-02-10T16:10:21.910Z,0.60
2019-02-10T16:12:49.149Z,0.63
2019-02-10T16:15:16.421Z,0.50
2019-02-10T16:17:43.671Z,0.40
2019-02-10T16:20:11.975Z,0.47
2019-02-10T16:22:39.247Z,0.40
2019-02-10T16:25:06.878Z,0.50
2019-02-10T16:27:34.151Z,0.40
2019-02-10T16:30:01.423Z,0.40
2019-02-10T16:32:28.702Z,0.50
2019-02-10T16:34:55.948Z,0.40
2019-02-10T16:37:23.224Z,0.67
2019-02-10T16:39:50.490Z,0.50
2019-02-10T16:42:17.758Z,0.60
2019-02-10T16:44:45.038Z,0.47
2019-02-10T16:47:12.305Z,0.50
2019-02-10T16:49:39.581Z,0.50
2019-02-10T16:52:06.825Z,0.57
2019-02-10T16:54:34.116Z,0.50
2019-02-10T16:57:01.357Z,0.63
2019-02-10T16:59:28.637Z,0.63
2019-02-10T17:01:55.903Z,0.50
2019-02-10T17:04:23.166Z,0.50
2019-02-10T17:06:50.687Z,0.57
2019-02-10T17:09:17.953Z,0.50
2019-02-10T17:11:45.249Z,0.57
2019-02-10T17:14:12.491Z,0.50
2019-02-10T17:16:39.734Z,0.50
2019-02-10T17:19:07.025Z,0.60
2019-02-10T17:21:34.262Z,0.40
2019-02-10T17:24:01.513Z,0.60
2019-02-10T17:26:28.773Z,0.50
2019-02-10T17:28:56.042Z,0.50
2019-02-10T17:31:23.286Z,0.50
2019-02-10T17:33:50.562Z,0.40
2019-02-10T17:36:17.797Z,0.50
2019-02-10T17:38:45.066Z,0.60
2019-02-10T17:41:13.883Z,0.50
2019-02-10T17:43:41.529Z,0.40
2019-02-10T17:46:08.794Z,0.40
2019-02-10T17:48:36.075Z,0.70
2019-02-10T17:51:03.382Z,0.50
2019-02-10T17:53:30.621Z,0.40
2019-02-10T17:55:57.894Z,0.40
2019-02-10T17:58:25.162Z,0.47
2019-02-10T18:00:52.480Z,0.60
2019-02-10T18:03:19.723Z,0.50
2019-02-10T18:05:46.995Z,0.50
2019-02-10T18:08:14.264Z,0.40
2019-02-10T18:10:41.547Z,0.50
2019-02-10T18:13:10.426Z,0.47
2019-02-10T18:15:45.540Z,0.50
2019-02-10T18:18:26.217Z,0.60
2019-02-10T18:20:55.117Z,0.40
2019-02-10T18:23:38.821Z,0.40
2019-02-10T18:26:24.086Z,0.50
2019-02-10T18:29:09.306Z,0.60
2019-02-10T18:31:53.069Z,0.57
2019-02-10T18:34:24.722Z,0.53
2019-02-10T18:37:09.717Z,0.50
2019-02-10T18:39:38.636Z,0.50
2019-02-10T18:42:22.313Z,0.60
2019-02-10T18:45:06.897Z,0.50
2019-02-10T18:47:44.427Z,0.57
2019-02-10T18:50:28.443Z,0.50
2019-02-10T18:52:59.879Z,0.70
2019-02-10T18:55:45.542Z,0.80
2019-02-10T18:58:23.748Z,0.50
2019-02-10T19:00:58.482Z,0.50
2019-02-10T19:03:33.014Z,0.50
2019-02-10T19:06:08.284Z,0.60
2019-02-10T19:08:37.265Z,0.50
2019-02-10T19:11:09.241Z,0.60
2019-02-10T19:13:41.161Z,0.40
2019-02-10T19:16:10.046Z,0.50
2019-02-10T19:18:51.118Z,0.50
2019-02-10T19:21:37.863Z,0.60
2019-02-10T19:24:06.778Z,0.50
2019-02-10T19:26:44.629Z,0.60
2019-02-10T19:29:29.514Z,0.50
2019-02-10T19:32:07.397Z,0.50
2019-02-10T19:34:42.342Z,0.60
2019-02-10T19:37:13.650Z,0.93
2019-02-10T19:39:42.822Z,0.60
2019-02-10T19:42:20.666Z,0.63
2019-02-10T19:44:55.848Z,0.50
2019-02-10T19:47:30.971Z,0.50
2019-02-10T19:50:14.669Z,0.50
2019-02-10T19:52:43.558Z,0.50
2019-02-10T19:55:24.498Z,0.70
2019-02-10T19:58:08.486Z,0.50
2019-02-10T20:00:40.363Z,0.60
2019-02-10T20:03:25.136Z,0.50
2019-02-10T20:06:10.084Z,0.60
2019-02-10T20:08:38.962Z,0.50
2019-02-10T20:11:23.018Z,0.80
2019-02-10T20:13:54.857Z,0.50
2019-02-10T20:16:29.560Z,0.60
2019-02-10T20:18:58.446Z,0.53
2019-02-10T20:21:33.531Z,0.63
2019-02-10T20:24:08.446Z,0.77
2019-02-10T20:26:52.468Z,0.70
2019-02-10T20:29:30.053Z,0.70
2019-02-10T20:32:16.814Z,0.70
2019-02-10T20:34:45.695Z,0.70
2019-02-10T20:37:29.434Z,0.80
2019-02-10T20:40:16.406Z,0.77
2019-02-10T20:43:01.485Z,0.60
2019-02-10T20:45:42.286Z,0.50
2019-02-10T20:48:26.292Z,0.60
2019-02-10T20:51:10.273Z,0.80
2019-02-10T20:53:41.884Z,0.70
2019-02-10T20:56:25.543Z,0.80
2019-02-10T20:58:54.456Z,0.73
2019-02-10T21:01:35.426Z,0.50
2019-02-10T21:04:04.314Z,0.80
2019-02-10T21:06:49.103Z,0.60
2019-02-10T21:09:18.008Z,0.70
2019-02-10T21:12:02.980Z,0.60
2019-02-10T21:14:49.910Z,0.53
2019-02-10T21:17:27.958Z,0.60
2019-02-10T21:20:08.790Z,0.60
2019-02-10T21:22:37.698Z,0.70
2019-02-10T21:25:07.695Z,0.60
2019-02-10T21:27:39.552Z,0.80
2019-02-10T21:30:26.223Z,0.50
2019-02-10T21:33:00.805Z,0.97
2019-02-10T21:35:30.027Z,0.50
2019-02-10T21:37:58.944Z,0.60
2019-02-10T21:40:30.256Z,0.50
2019-02-10T21:43:02.366Z,0.60
2019-02-10T21:45:31.393Z,0.40
2019-02-10T21:48:00.574Z,0.60
2019-02-10T21:50:27.844Z,0.43
2019-02-10T21:52:55.166Z,0.63
2019-02-10T21:55:22.445Z,0.80
2019-02-10T21:57:49.689Z,0.50
2019-02-10T22:00:16.960Z,0.40
2019-02-10T22:02:44.206Z,0.80
2019-02-10T22:05:11.671Z,0.50
2019-02-10T22:07:38.922Z,0.70
2019-02-10T22:10:12.120Z,0.57
2019-02-10T22:12:39.705Z,0.50
2019-02-10T22:15:08.274Z,0.50
2019-02-10T22:17:35.547Z,0.60
2019-02-10T22:20:02.790Z,0.50
2019-02-10T22:22:30.059Z,0.60
2019-02-10T22:24:57.306Z,0.50
2019-02-10T22:27:24.579Z,0.60
2019-02-10T22:29:51.821Z,0.40
2019-02-10T22:32:19.771Z,0.50
2019-02-10T22:34:47.108Z,0.60
2019-02-10T22:37:14.378Z,0.50
2019-02-10T22:39:41.621Z,0.50
2019-02-10T22:42:08.893Z,0.70
2019-02-10T22:44:36.143Z,0.50
2019-02-10T22:47:03.414Z,0.57
2019-02-10T22:49:30.659Z,0.50
2019-02-10T22:51:57.930Z,0.60
2019-02-10T22:54:25.173Z,0.70
2019-02-10T22:56:52.456Z,0.70
2019-02-10T22:59:19.721Z,0.60
2019-02-10T23:01:46.994Z,0.60
2019-02-10T23:04:14.284Z,0.60
2019-02-10T23:06:41.609Z,0.53
2019-02-10T23:09:10.626Z,0.60
2019-02-10T23:11:37.924Z,0.60
2019-02-10T23:14:05.264Z,0.50
2019-02-10T23:16:32.512Z,0.50
2019-02-10T23:18:59.754Z,0.70
2019-02-10T23:21:27.301Z,0.60
2019-02-10T23:23:54.582Z,0.93
2019-02-10T23:26:21.837Z,0.50
2019-02-10T23:28:49.070Z,0.50
2019-02-10T23:31:16.334Z,0.60
2019-02-10T23:33:43.606Z,0.60
2019-02-10T23:36:10.873Z,0.70
2019-02-10T23:38:38.148Z,0.50
2019-02-10T23:41:05.389Z,0.53
2019-02-10T23:43:32.664Z,0.50
2019-02-10T23:45:59.911Z,0.50
2019-02-10T23:48:27.182Z,0.67
2019-02-10T23:50:54.423Z,0.70
2019-02-10T23:53:21.688Z,0.60
2019-02-10T23:55:48.929Z,0.70
2019-02-10T23:58:16.206Z,0.70
